Time;durP1;ratioP1;P1;durP2;ratioP2;P2;SDS_P1;SDS_P2;PMS_P1;PMS_P2;Temp;Humidity;BMP_temperature;BMP_pressure;BME280_temperature;BME280_humidity;BME280_pressure;Samples;Min_cycle;Max_cycle;Signal;HPM_P1;HPM_P2
2022/09/15 00:00:01;;;;;;;32.78;19.00;;;;;;;13.95;100.00;100224.97;5093006;28;20531;-59
2022/09/15 00:02:33;;;;;;;39.63;17.65;;;;;;;14.01;100.00;100218.91;5092290;28;20032;-59
2022/09/15 00:04:59;;;;;;;44.38;18.27;;;;;;;14.01;100.00;100232.25;5092573;28;20401;-59
2022/09/15 00:07:26;;;;;;;32.38;18.58;;;;;;;13.83;100.00;100228.13;5092576;28;20044;-59
2022/09/15 00:09:53;;;;;;;40.05;18.85;;;;;;;13.91;100.00;100223.72;5092610;28;20102;-60
2022/09/15 00:12:19;;;;;;;38.22;18.55;;;;;;;14.05;100.00;100230.84;5092836;28;20040;-59
2022/09/15 00:14:46;;;;;;;33.63;17.92;;;;;;;14.05;100.00;100230.84;5092660;28;20044;-59
2022/09/15 00:17:13;;;;;;;34.58;18.10;;;;;;;13.96;100.00;100237.31;5092583;28;20044;-59
2022/09/15 00:19:39;;;;;;;37.30;19.48;;;;;;;13.85;100.00;100235.97;5092302;28;20097;-59
2022/09/15 00:22:06;;;;;;;35.80;17.98;;;;;;;13.86;100.00;100234.97;5091669;28;20044;-59
2022/09/15 00:24:33;;;;;;;32.83;18.10;;;;;;;13.89;100.00;100234.56;5091238;28;20101;-59
2022/09/15 00:26:59;;;;;;;33.55;18.50;;;;;;;13.80;100.00;100233.84;5092666;28;20089;-59
2022/09/15 00:29:26;;;;;;;34.67;18.90;;;;;;;13.83;100.00;100232.66;5076734;28;20040;-59
2022/09/15 00:31:53;;;;;;;37.42;18.60;;;;;;;13.83;100.00;100222.81;5071985;28;20440;-59
2022/09/15 00:34:19;;;;;;;40.15;19.45;;;;;;;13.79;100.00;100232.19;5071562;28;20414;-59
2022/09/15 00:36:46;;;;;;;37.03;18.90;;;;;;;13.80;100.00;100228.50;5082628;28;20044;-59
2022/09/15 00:39:13;;;;;;;39.03;18.42;;;;;;;13.83;100.00;100230.00;5092273;28;20047;-59
2022/09/15 00:41:41;;;;;;;41.10;19.90;;;;;;;13.80;100.00;100223.19;5092430;28;20444;-59
2022/09/15 00:46:55;;;;;;;34.85;18.77;;;;;;;13.86;100.00;100220.78;5110161;27;20364;-60
2022/09/15 00:49:37;;;;;;;35.10;17.95;;;;;;;13.81;100.00;100224.03;5110349;28;20043;-59
2022/09/15 00:52:09;;;;;;;37.65;19.10;;;;;;;13.74;100.00;100231.13;5109805;28;20089;-59
2022/09/15 00:54:41;;;;;;;;;;;;;;;13.78;100.00;100237.72;5110218;28;20043;-59
2022/09/15 00:57:13;;;;;;;;;;;;;;;13.82;100.00;100234.50;5110584;28;19927;-59
2022/09/15 00:59:41;;;;;;;45.30;17.70;;;;;;;13.72;100.00;100231.31;5108125;28;19924;-59
2022/09/15 01:02:14;;;;;;;37.15;17.60;;;;;;;13.66;100.00;100240.06;5109710;28;20055;-60
2022/09/15 01:04:42;;;;;;;36.65;18.52;;;;;;;13.70;100.00;100232.47;5107741;28;20044;-60
2022/09/15 01:07:13;;;;;;;35.10;18.40;;;;;;;13.65;100.00;100230.38;5108604;28;20105;-60
2022/09/15 01:09:50;;;;;;;;;;;;;;;13.54;100.00;100225.53;5110123;28;20405;-60
2022/09/15 01:12:19;;;;;;;37.72;17.42;;;;;;;13.69;100.00;100226.34;5108578;28;19927;-60
2022/09/15 01:14:46;;;;;;;40.92;17.80;;;;;;;13.76;100.00;100223.75;5109488;28;20100;-60
2022/09/15 01:20:33;;;;;;;35.15;18.08;;;;;;;13.68;100.00;100223.84;5110051;27;20380;-60
2022/09/15 01:23:28;;;;;;;40.00;18.17;;;;;;;13.73;100.00;100222.28;5109624;28;20058;-60
2022/09/15 01:29:20;;;;;;;32.92;16.92;;;;;;;13.48;100.00;100228.94;5109824;27;20677;-59
2022/09/15 01:34:59;;;;;;;33.60;17.20;;;;;;;13.52;100.00;100220.41;5109696;28;20370;-59
2022/09/15 01:37:33;;;;;;;34.05;17.83;;;;;;;13.42;100.00;100223.34;5108391;28;20058;-59
2022/09/15 01:40:01;;;;;;;30.83;16.23;;;;;;;13.38;100.00;100221.22;5110045;28;20078;-59
2022/09/15 01:42:30;;;;;;;34.00;16.95;;;;;;;13.40;100.00;100225.34;5109495;28;20040;-59
2022/09/15 01:45:02;;;;;;;34.38;16.85;;;;;;;13.41;99.78;100215.53;5109703;28;20599;-59
2022/09/15 01:47:29;;;;;;;39.72;17.90;;;;;;;13.37;99.49;100216.91;5108775;28;20072;-59
2022/09/15 01:50:04;;;;;;;34.85;18.20;;;;;;;13.38;99.52;100213.25;5109334;28;20407;-59
2022/09/15 01:52:32;;;;;;;33.65;17.75;;;;;;;13.30;99.92;100216.81;5109623;28;20035;-60
2022/09/15 01:55:04;;;;;;;34.45;19.55;;;;;;;13.36;99.47;100217.94;5109616;28;20040;-59
2022/09/15 01:57:32;;;;;;;;;;;;;;;13.36;99.68;100228.59;5108611;28;20048;-59
2022/09/15 01:59:59;;;;;;;42.50;17.83;;;;;;;13.34;99.97;100220.78;5109415;28;20288;-59
2022/09/15 02:02:49;;;;;;;38.10;19.80;;;;;;;13.24;99.40;100220.19;5108996;28;20522;-59
2022/09/15 02:05:24;;;;;;;32.33;18.58;;;;;;;13.23;99.74;100222.03;5109202;28;20058;-59
2022/09/15 02:08:03;;;;;;;32.85;19.23;;;;;;;13.16;99.84;100228.28;5109098;28;20039;-59
2022/09/15 02:10:43;;;;;;;42.83;20.42;;;;;;;13.17;100.00;100221.94;5109272;28;20063;-59
2022/09/15 02:13:15;;;;;;;37.88;20.92;;;;;;;13.06;100.00;100234.72;5107682;28;20412;-59
2022/09/15 02:15:47;;;;;;;39.65;20.40;;;;;;;13.04;100.00;100234.06;5109293;28;20036;-59
2022/09/15 02:18:23;;;;;;;38.92;21.67;;;;;;;13.10;99.20;100237.00;5109038;28;20424;-59
2022/09/15 02:20:57;;;;;;;37.90;21.10;;;;;;;13.09;99.09;100228.19;5107525;28;20040;-59
2022/09/15 02:23:31;;;;;;;40.88;21.08;;;;;;;13.04;99.47;100227.91;5107876;28;20043;-59
2022/09/15 02:26:05;;;;;;;41.28;21.40;;;;;;;13.04;99.36;100225.22;5108745;28;20048;-59
2022/09/15 02:28:35;;;;;;;42.22;21.23;;;;;;;13.04;99.64;100231.41;5104602;28;20029;-59
2022/09/15 02:31:04;;;;;;;39.55;21.60;;;;;;;12.99;98.96;100227.66;5072433;28;20067;-59
2022/09/15 02:33:37;;;;;;;37.75;20.00;;;;;;;12.98;98.92;100229.47;5088295;28;20047;-59
2022/09/15 02:36:05;;;;;;;41.08;22.65;;;;;;;12.97;98.81;100224.31;5094185;28;20123;-59
2022/09/15 02:38:39;;;;;;;39.55;21.88;;;;;;;12.95;98.86;100227.19;5103179;28;20040;-59
2022/09/15 02:41:16;;;;;;;37.67;20.27;;;;;;;12.95;99.58;100221.84;5000433;28;20519;-59
2022/09/15 02:43:45;;;;;;;37.38;21.45;;;;;;;12.86;99.31;100231.75;5050474;28;20044;-59
2022/09/15 02:46:13;;;;;;;36.28;21.27;;;;;;;12.82;99.91;100230.47;5095124;28;20044;-59
2022/09/15 02:48:40;;;;;;;37.90;19.15;;;;;;;12.78;99.63;100226.50;5093728;28;20040;-59
2022/09/15 02:51:07;;;;;;;38.53;19.77;;;;;;;12.81;99.96;100230.66;5093560;28;20044;-60
2022/09/15 02:53:35;;;;;;;37.05;20.42;;;;;;;12.84;99.58;100230.25;5094948;28;20127;-59
2022/09/15 02:56:04;;;;;;;35.70;19.33;;;;;;;12.83;99.85;100233.94;5094883;28;20074;-60
2022/09/15 02:58:33;;;;;;;37.53;19.75;;;;;;;12.85;100.00;100232.75;5093325;28;20047;-59
2022/09/15 03:01:04;;;;;;;38.65;18.50;;;;;;;12.79;99.20;100230.81;5094865;28;20447;-59
2022/09/15 03:03:32;;;;;;;36.33;17.90;;;;;;;12.65;99.19;100227.09;5094532;28;20056;-59
2022/09/15 03:06:15;;;;;;;37.75;19.52;;;;;;;12.63;99.41;100234.44;5094266;28;20439;-59
2022/09/15 03:08:51;;;;;;;32.95;18.42;;;;;;;12.78;100.00;100229.16;5095064;28;20123;-59
2022/09/15 03:11:19;;;;;;;36.50;18.10;;;;;;;12.75;100.00;100224.22;5094577;28;20051;-59
2022/09/15 03:13:47;;;;;;;33.03;18.15;;;;;;;12.73;100.00;100218.22;5093304;28;20036;-59
2022/09/15 03:16:15;;;;;;;33.72;18.10;;;;;;;12.65;100.00;100205.00;5094476;28;20040;-59
2022/09/15 03:18:41;;;;;;;34.63;18.63;;;;;;;12.71;100.00;100214.09;5094336;28;20105;-59
2022/09/15 03:21:12;;;;;;;33.80;18.05;;;;;;;12.67;100.00;100219.78;5092962;28;20048;-59
2022/09/15 03:23:39;;;;;;;36.15;18.80;;;;;;;12.60;100.00;100226.81;5094571;28;20051;-59
2022/09/15 03:26:07;;;;;;;33.28;18.27;;;;;;;12.38;100.00;100243.63;5094265;28;20127;-59
2022/09/15 03:28:36;;;;;;;41.60;19.55;;;;;;;12.52;100.00;100245.53;5092645;28;20093;-59
2022/09/15 03:31:02;;;;;;;33.88;18.73;;;;;;;12.62;100.00;100239.94;5094249;28;20044;-60
2022/09/15 03:33:29;;;;;;;36.17;19.00;;;;;;;12.58;100.00;100243.97;5093731;28;20067;-59
2022/09/15 03:35:56;;;;;;;41.50;19.67;;;;;;;12.69;100.00;100243.53;5092867;28;20047;-59
2022/09/15 03:38:23;;;;;;;41.03;18.95;;;;;;;12.76;100.00;100254.31;5092899;28;20044;-59
2022/09/15 03:41:09;;;;;;;38.50;19.48;;;;;;;12.77;100.00;100243.47;5092497;28;20047;-59
2022/09/15 03:43:37;;;;;;;34.45;17.88;;;;;;;12.84;100.00;100247.09;5092899;28;20059;-59
2022/09/15 03:46:05;;;;;;;39.75;18.73;;;;;;;12.84;100.00;100246.22;5076188;28;20097;-59
2022/09/15 03:48:34;;;;;;;35.58;18.40;;;;;;;12.91;100.00;100249.00;5093487;28;20036;-59
2022/09/15 03:51:03;;;;;;;33.15;18.02;;;;;;;12.95;100.00;100248.47;5091388;28;20044;-59
2022/09/15 03:53:32;;;;;;;33.67;16.73;;;;;;;13.02;100.00;100246.75;5092797;28;20127;-59
2022/09/15 03:56:25;;;;;;;42.92;18.92;;;;;;;12.98;100.00;100256.06;5093423;28;20040;-59
2022/09/15 03:58:52;;;;;;;39.55;18.92;;;;;;;13.01;100.00;100247.75;5093494;28;20128;-59
2022/09/15 04:01:19;;;;;;;34.25;18.00;;;;;;;13.11;100.00;100250.13;5092152;28;20040;-59
2022/09/15 04:03:47;;;;;;;36.70;18.17;;;;;;;13.14;100.00;100247.09;5092382;28;20048;-59
2022/09/15 04:06:18;;;;;;;38.05;17.92;;;;;;;13.21;100.00;100248.03;5092394;28;20131;-59
2022/09/15 04:08:44;;;;;;;36.03;18.58;;;;;;;13.25;100.00;100237.84;5093137;28;20040;-59
2022/09/15 04:11:11;;;;;;;41.17;19.55;;;;;;;13.32;100.00;100243.28;5092304;28;20428;-60
2022/09/15 04:13:40;;;;;;;39.97;19.98;;;;;;;13.35;100.00;100251.75;5093370;28;20036;-60
2022/09/15 04:16:10;;;;;;;37.85;19.23;;;;;;;13.26;100.00;100244.81;5093130;28;20040;-60
2022/09/15 04:18:37;;;;;;;39.75;19.23;;;;;;;13.28;100.00;100249.94;5092991;28;20128;-60
2022/09/15 04:21:07;;;;;;;44.92;20.10;;;;;;;13.40;100.00;100248.50;5092203;28;20044;-61
2022/09/15 04:23:34;;;;;;;36.03;19.42;;;;;;;13.45;100.00;100254.13;5092766;28;20533;-60
2022/09/15 04:26:04;;;;;;;41.13;19.55;;;;;;;13.45;100.00;100246.13;5093607;28;20040;-59
2022/09/15 04:28:33;;;;;;;44.75;20.33;;;;;;;13.48;100.00;100244.91;5092087;28;20567;-59
2022/09/15 04:31:07;;;;;;;39.17;20.27;;;;;;;13.50;100.00;100235.75;5091733;28;20105;-59
2022/09/15 04:33:35;;;;;;;38.10;19.40;;;;;;;13.56;100.00;100245.66;5093216;28;20040;-59
2022/09/15 04:36:04;;;;;;;37.67;20.17;;;;;;;13.60;100.00;100251.44;5093059;28;20371;-59
2022/09/15 04:38:32;;;;;;;45.88;20.08;;;;;;;13.51;99.36;100241.91;5093371;28;20040;-59
2022/09/15 04:40:58;;;;;;;40.53;19.85;;;;;;;13.59;98.90;100244.47;5091894;28;20044;-59
2022/09/15 04:43:25;;;;;;;43.42;20.02;;;;;;;13.65;98.14;100243.72;5092781;28;20071;-59
2022/09/15 04:45:53;;;;;;;46.65;22.10;;;;;;;13.67;98.69;100241.69;5092649;28;20048;-60
2022/09/15 04:48:22;;;;;;;38.83;20.20;;;;;;;13.67;98.46;100255.00;5092969;28;20051;-59
2022/09/15 04:50:48;;;;;;;39.40;19.52;;;;;;;13.69;98.70;100246.84;5092364;28;20044;-59
2022/09/15 04:53:15;;;;;;;40.78;18.98;;;;;;;13.68;97.65;100251.34;5092516;28;20055;-60
2022/09/15 04:55:42;;;;;;;40.67;18.23;;;;;;;13.66;98.66;100247.19;5092481;28;20097;-59
2022/09/15 04:58:10;;;;;;;38.95;18.20;;;;;;;13.66;99.85;100247.19;5091278;28;20058;-59
2022/09/15 05:00:41;;;;;;;38.63;19.20;;;;;;;13.66;99.77;100250.72;5091187;28;20044;-59
2022/09/15 05:03:10;;;;;;;;;;;;;;;13.66;100.00;100250.72;5091195;28;20090;-59
2022/09/15 05:05:37;;;;;;;31.65;16.02;;;;;;;13.66;99.44;100250.72;5091882;28;19923;-59
2022/09/15 05:08:04;;;;;;;36.15;17.23;;;;;;;13.67;99.35;100249.69;5092499;28;20699;-59
2022/09/15 05:10:32;;;;;;;31.10;16.40;;;;;;;13.74;97.31;100252.44;5092301;28;20040;-59
2022/09/15 05:12:59;;;;;;;32.70;16.13;;;;;;;13.75;98.03;100241.59;5092166;28;20135;-59
2022/09/15 05:15:25;;;;;;;36.08;17.35;;;;;;;13.76;98.55;100255.75;5091081;28;20044;-59
2022/09/15 05:17:52;;;;;;;33.60;16.35;;;;;;;13.46;99.43;100266.41;5090905;28;20541;-59
2022/09/15 05:20:19;;;;;;;34.50;16.83;;;;;;;13.55;98.67;100256.50;5090668;28;20127;-59
2022/09/15 05:22:45;;;;;;;35.38;17.15;;;;;;;13.56;98.00;100258.16;5092074;28;20401;-59
2022/09/15 05:25:12;;;;;;;31.02;17.23;;;;;;;13.55;98.14;100261.81;5091962;28;20047;-59
2022/09/15 05:27:39;;;;;;;31.48;16.58;;;;;;;13.52;98.77;100265.69;5090384;28;20400;-59
2022/09/15 05:30:06;;;;;;;37.60;18.38;;;;;;;13.54;100.00;100269.00;5074475;28;20048;-59
2022/09/15 05:32:53;;;;;;;31.33;17.58;;;;;;;13.48;100.00;100276.91;5090714;28;20119;-59
2022/09/15 05:35:20;;;;;;;36.42;17.08;;;;;;;13.61;99.26;100279.75;5091972;28;20040;-59
2022/09/15 05:37:46;;;;;;;44.15;18.65;;;;;;;13.68;98.42;100278.00;5092171;28;20067;-59
2022/09/15 05:40:14;;;;;;;35.20;18.30;;;;;;;13.62;98.80;100279.56;5093170;28;20481;-59
2022/09/15 05:42:40;;;;;;;46.03;17.92;;;;;;;13.50;99.47;100278.38;5091894;28;20051;-59
2022/09/15 05:45:07;;;;;;;28.45;16.33;;;;;;;13.56;99.75;100279.47;5091413;28;20328;-60
2022/09/15 05:47:34;;;;;;;41.53;16.92;;;;;;;13.62;99.55;100289.38;5089615;28;20155;-59
2022/09/15 05:50:01;;;;;;;43.05;17.50;;;;;;;13.61;100.00;100282.41;5091327;28;20113;-59
2022/09/15 05:52:27;;;;;;;35.63;17.05;;;;;;;13.66;100.00;100279.19;5089847;28;20062;-60
2022/09/15 05:54:54;;;;;;;35.30;17.10;;;;;;;13.70;98.02;100281.31;5091261;28;20105;-59
2022/09/15 05:57:23;;;;;;;38.97;17.52;;;;;;;13.59;99.02;100277.28;5090668;28;20055;-60
2022/09/15 05:59:50;;;;;;;33.35;16.80;;;;;;;13.63;99.79;100280.41;5089824;28;20401;-59
2022/09/15 06:02:17;;;;;;;43.83;17.52;;;;;;;13.74;98.06;100273.75;5089933;28;20040;-59
2022/09/15 06:04:43;;;;;;;40.00;19.02;;;;;;;13.75;98.41;100283.41;5073019;28;20497;-59
2022/09/15 06:07:11;;;;;;;36.85;17.83;;;;;;;13.75;98.40;100286.91;5091067;28;20051;-60
2022/09/15 06:09:38;;;;;;;40.95;18.45;;;;;;;13.67;99.78;100296.84;5091484;28;20097;-60
2022/09/15 06:12:05;;;;;;;33.08;17.98;;;;;;;13.86;99.62;100292.75;5091380;28;20445;-60
2022/09/15 06:14:31;;;;;;;37.72;17.85;;;;;;;13.86;98.36;100287.44;5092353;28;20040;-60
2022/09/15 06:16:58;;;;;;;38.13;17.67;;;;;;;13.82;98.74;100297.63;5086104;28;20508;-60
2022/09/15 06:19:25;;;;;;;37.83;19.15;;;;;;;13.85;98.96;100299.94;5095525;28;20040;-60
2022/09/15 06:21:53;;;;;;;35.33;17.63;;;;;;;13.85;98.76;100302.59;5095325;28;20142;-60
2022/09/15 06:24:20;;;;;;;42.10;18.92;;;;;;;13.92;99.64;100300.84;5088480;28;20422;-60
2022/09/15 06:26:47;;;;;;;37.08;19.20;;;;;;;13.97;99.31;100298.47;5089322;28;20055;-61
2022/09/15 06:29:14;;;;;;;41.85;18.17;;;;;;;14.16;98.88;100304.19;5094011;28;20036;-60
2022/09/15 06:31:40;;;;;;;38.65;17.77;;;;;;;14.23;97.97;100304.28;5083621;28;20382;-60
2022/09/15 06:34:10;;;;;;;36.35;17.77;;;;;;;14.15;98.24;100306.06;5073354;28;20346;-59
2022/09/15 06:36:37;;;;;;;39.88;18.10;;;;;;;14.19;99.41;100303.84;5073449;28;20044;-60
2022/09/15 06:39:04;;;;;;;38.80;17.95;;;;;;;14.28;98.66;100302.69;5074554;28;20093;-60
2022/09/15 06:41:31;;;;;;;35.05;17.60;;;;;;;14.33;98.75;100305.59;5072938;28;20044;-59
2022/09/15 06:44:17;;;;;;;39.83;18.33;;;;;;;14.35;98.21;100308.09;5099625;28;20036;-51
2022/09/15 06:46:44;;;;;;;35.70;17.52;;;;;;;14.34;97.03;100301.13;5093885;28;20044;-54
2022/09/15 06:49:11;;;;;;;31.27;17.25;;;;;;;14.30;96.87;100302.53;5097091;28;20036;-54
2022/09/15 06:51:38;;;;;;;40.83;17.45;;;;;;;14.24;97.17;100305.91;5093236;28;20044;-54
2022/09/15 06:54:05;;;;;;;40.83;18.10;;;;;;;14.26;97.40;100315.41;5065844;28;20044;-54
2022/09/15 06:56:32;;;;;;;36.38;17.63;;;;;;;14.32;97.97;100322.66;5085833;28;20558;-54
2022/09/15 06:59:02;;;;;;;35.92;17.48;;;;;;;14.38;98.49;100318.41;5094279;28;20036;-54
2022/09/15 07:01:30;;;;;;;41.10;17.70;;;;;;;14.40;98.36;100319.84;5082460;28;20036;-54
2022/09/15 07:03:59;;;;;;;38.60;17.92;;;;;;;14.50;96.87;100324.88;5089903;28;20093;-54
2022/09/15 07:06:28;;;;;;;37.63;17.20;;;;;;;14.52;95.71;100322.84;5092388;28;20048;-54
2022/09/15 07:08:56;;;;;;;36.25;17.35;;;;;;;14.46;96.66;100326.28;5078154;28;20498;-55
2022/09/15 07:11:23;;;;;;;34.00;17.02;;;;;;;14.47;96.39;100329.78;5056593;28;20032;-55
2022/09/15 07:13:51;;;;;;;34.88;16.17;;;;;;;14.48;95.69;100321.59;5101027;28;20044;-55
2022/09/15 07:16:18;;;;;;;35.15;17.40;;;;;;;14.50;95.11;100318.75;5092090;28;20524;-54
2022/09/15 07:18:46;;;;;;;32.88;16.73;;;;;;;14.43;95.65;100325.84;5086242;28;20046;-54
2022/09/15 07:21:17;;;;;;;35.58;16.60;;;;;;;14.49;96.79;100333.09;5093317;28;20439;-61
2022/09/15 07:23:45;;;;;;;44.85;18.33;;;;;;;14.53;97.58;100339.69;5075148;28;20049;-61
2022/09/15 07:26:15;;;;;;;39.10;17.75;;;;;;;14.63;96.41;100339.41;5092210;28;20626;-63
2022/09/15 07:28:44;;;;;;;39.72;18.02;;;;;;;14.68;96.14;100334.31;5081720;28;20054;-64
2022/09/15 07:31:14;;;;;;;38.88;18.52;;;;;;;14.60;95.04;100335.28;5091365;28;20051;-63
2022/09/15 07:33:41;;;;;;;44.78;18.80;;;;;;;14.66;95.10;100342.53;5079141;28;20049;-63
2022/09/15 07:36:09;;;;;;;61.50;20.88;;;;;;;14.70;95.87;100349.16;5082896;28;20043;-63
2022/09/15 07:38:40;;;;;;;57.13;19.95;;;;;;;14.84;96.05;100350.06;5096064;28;20032;-63
2022/09/15 07:41:09;;;;;;;58.05;21.80;;;;;;;14.88;96.77;100350.53;5091973;28;20504;-63
2022/09/15 07:43:36;;;;;;;41.58;18.38;;;;;;;14.90;94.76;100356.53;5110119;28;20065;-63
2022/09/15 07:46:03;;;;;;;40.17;19.38;;;;;;;14.96;95.64;100361.91;5092129;28;20043;-63
2022/09/15 07:48:31;;;;;;;39.63;18.70;;;;;;;15.06;95.32;100364.25;5094565;28;20028;-63
2022/09/15 07:50:58;;;;;;;35.80;17.95;;;;;;;15.24;92.80;100370.97;5084600;28;20098;-63
2022/09/15 07:53:28;;;;;;;42.90;17.85;;;;;;;15.29;92.74;100369.38;5089945;28;20040;-64
2022/09/15 07:55:55;;;;;;;41.38;16.98;;;;;;;15.38;93.99;100372.72;5063302;28;20048;-63
2022/09/15 07:58:22;;;;;;;36.50;17.17;;;;;;;15.22;94.08;100375.69;5095023;28;20043;-63
2022/09/15 08:00:49;;;;;;;35.08;16.52;;;;;;;15.30;93.04;100380.91;5085041;28;20048;-63
2022/09/15 08:03:15;;;;;;;32.47;15.73;;;;;;;15.45;92.69;100381.63;5068773;28;20099;-63
2022/09/15 08:05:42;;;;;;;34.17;16.80;;;;;;;15.64;90.81;100374.72;5080211;28;20083;-58
2022/09/15 08:08:11;;;;;;;111.63;18.33;;;;;;;15.77;90.52;100384.75;5091665;28;20485;-58
2022/09/15 08:10:39;;;;;;;34.47;15.68;;;;;;;15.91;89.75;100380.28;5081422;28;20130;-58
2022/09/15 08:13:07;;;;;;;34.20;16.50;;;;;;;15.93;91.07;100381.75;5096672;28;20039;-58
2022/09/15 08:15:36;;;;;;;28.63;15.25;;;;;;;15.99;89.06;100377.44;5106605;28;20039;-58
2022/09/15 08:18:03;;;;;;;33.78;14.70;;;;;;;16.02;90.28;100387.75;5087141;28;20050;-58
2022/09/15 08:20:31;;;;;;;33.90;14.88;;;;;;;15.92;86.11;100390.78;5105548;28;20127;-58
2022/09/15 08:22:58;;;;;;;28.58;14.10;;;;;;;15.77;87.54;100390.09;5087609;28;20039;-58
2022/09/15 08:25:24;;;;;;;22.52;13.13;;;;;;;15.77;88.51;100383.91;5089216;28;20416;-58
2022/09/15 08:27:53;;;;;;;30.02;12.63;;;;;;;15.77;88.91;100394.59;5094544;28;20055;-58
2022/09/15 08:30:20;;;;;;;27.85;12.73;;;;;;;15.87;87.03;100403.09;5087542;28;21811;-58
2022/09/15 08:32:47;;;;;;;25.55;12.80;;;;;;;15.77;89.06;100411.50;5085388;28;20048;-58
2022/09/15 08:35:15;;;;;;;29.35;13.52;;;;;;;15.88;86.63;100410.09;5095422;28;20044;-58
2022/09/15 08:37:42;;;;;;;28.58;12.27;;;;;;;15.90;85.45;100403.53;5085924;28;20047;-58
2022/09/15 08:40:19;;;;;;;23.80;12.32;;;;;;;16.05;86.70;100408.75;5089681;28;20040;-63
2022/09/15 08:42:49;;;;;;;28.15;12.18;;;;;;;16.25;86.15;100403.50;5064729;28;20040;-64
2022/09/15 08:45:40;;;;;;;23.02;11.40;;;;;;;16.38;86.98;100413.44;5101635;28;20092;-64
2022/09/15 08:48:12;;;;;;;19.50;11.02;;;;;;;16.43;84.25;100412.84;5085035;28;20073;-63
2022/09/15 08:50:43;;;;;;;24.48;10.88;;;;;;;16.46;83.67;100412.41;5081824;28;20408;-63
2022/09/15 08:53:15;;;;;;;24.33;11.88;;;;;;;16.28;85.51;100423.66;5101700;28;20100;-63
2022/09/15 08:55:48;;;;;;;29.25;12.27;;;;;;;16.24;86.60;100425.91;5099555;28;20473;-63
2022/09/15 08:58:20;;;;;;;31.38;13.32;;;;;;;16.28;87.04;100434.38;5070190;28;20040;-63
2022/09/15 09:00:50;;;;;;;;;;;;;;;16.30;84.05;100429.66;5094581;28;20051;-63
2022/09/15 09:03:47;;;;;;;18.38;7.30;;;;;;;16.38;82.71;100437.53;5080497;28;19923;-63
2022/09/15 09:09:40;;;;;;;13.27;6.00;;;;;;;16.57;78.98;100427.94;5087570;27;20405;-63
2022/09/15 09:12:37;;;;;;;19.55;6.95;;;;;;;16.61;78.33;100428.34;5054542;28;20102;-63
2022/09/15 09:15:24;;;;;;;24.60;7.65;;;;;;;16.99;80.07;100427.81;5075981;28;20048;-63
2022/09/15 09:18:31;;;;;;;21.42;9.40;;;;;;;17.34;78.57;100430.34;5077554;28;20067;-62
2022/09/15 09:21:22;;;;;;;28.58;10.13;;;;;;;17.15;76.92;100423.94;5096468;28;20040;-63
2022/09/15 09:24:04;;;;;;;17.13;9.15;;;;;;;16.97;78.18;100427.22;5080335;28;20040;-62
2022/09/15 09:26:34;;;;;;;23.33;9.48;;;;;;;16.92;79.73;100433.19;5072736;28;20048;-63
2022/09/15 09:29:10;;;;;;;27.70;8.38;;;;;;;16.87;79.06;100433.78;5046771;28;20124;-63
2022/09/15 09:31:39;;;;;;;18.08;6.47;;;;;;;16.75;76.51;100438.03;5072220;28;20491;-62
2022/09/15 09:34:44;;;;;;;17.55;6.78;;;;;;;16.79;75.90;100431.28;5077738;28;20045;-62
2022/09/15 09:37:14;;;;;;;16.90;5.85;;;;;;;16.86;75.78;100429.47;5079423;28;20060;-63
2022/09/15 09:39:41;;;;;;;20.45;5.70;;;;;;;16.76;74.85;100430.84;5080207;28;20041;-63
2022/09/15 09:42:14;;;;;;;18.95;5.30;;;;;;;16.83;75.40;100440.59;5079380;28;20044;-63
2022/09/15 09:44:41;;;;;;;19.48;5.93;;;;;;;16.76;74.17;100430.84;5055347;28;20049;-63
2022/09/15 09:47:09;;;;;;;15.57;5.07;;;;;;;16.79;74.09;100438.47;5080501;28;20057;-63
2022/09/15 09:49:42;;;;;;;17.63;4.85;;;;;;;16.96;72.69;100428.25;5076383;28;20151;-63
2022/09/15 09:52:09;;;;;;;15.70;3.58;;;;;;;17.18;71.18;100436.94;5078113;28;20123;-63
2022/09/15 09:54:36;;;;;;;15.23;3.78;;;;;;;17.30;69.27;100437.13;5072278;28;20033;-63
2022/09/15 09:57:30;;;;;;;12.93;2.75;;;;;;;17.18;68.66;100443.13;5081849;28;20068;-63
2022/09/15 09:59:57;;;;;;;19.80;4.00;;;;;;;17.35;70.74;100442.72;5067225;28;20053;-63
2022/09/15 10:02:26;;;;;;;18.30;3.42;;;;;;;17.44;69.44;100442.31;5073349;28;20094;-63
2022/09/15 10:07:46;;;;;;;11.77;2.95;;;;;;;17.57;70.92;100427.22;5116677;27;20410;-62
2022/09/15 10:10:31;;;;;;;13.27;3.03;;;;;;;17.66;67.82;100436.72;5104701;28;20042;-62
2022/09/15 10:13:01;;;;;;;11.77;2.97;;;;;;;17.73;67.24;100440.22;5086914;28;20743;-62
2022/09/15 10:15:31;;;;;;;15.45;3.00;;;;;;;17.90;68.28;100429.91;4949677;28;20086;-65
2022/09/15 10:17:58;;;;;;;18.42;3.42;;;;;;;17.94;66.00;100433.00;5078592;28;20040;-65
2022/09/15 10:20:50;;;;;;;13.35;3.10;;;;;;;18.00;66.70;100434.84;5103736;28;20040;-65
2022/09/15 10:26:16;;;;;;;12.85;3.20;;;;;;;17.70;66.79;100429.06;5098873;27;20986;-63
2022/09/15 10:28:44;;;;;;;13.95;3.20;;;;;;;17.65;67.53;100419.81;5081647;28;20039;-64
2022/09/15 10:31:24;;;;;;;15.50;3.78;;;;;;;17.84;67.84;100430.69;5101822;28;20331;-63
2022/09/15 10:33:51;;;;;;;15.63;3.90;;;;;;;17.91;66.91;100425.38;5084916;28;20043;-61
2022/09/15 10:36:33;;;;;;;13.35;3.30;;;;;;;17.78;67.87;100421.63;5119040;28;20073;-61
2022/09/15 10:39:27;;;;;;;14.02;2.95;;;;;;;17.67;68.31;100421.47;5091087;28;20036;-61
2022/09/15 10:42:15;;;;;;;13.95;2.88;;;;;;;17.60;68.39;100422.28;5108726;28;20040;-63
2022/09/15 10:44:58;;;;;;;13.40;2.85;;;;;;;17.59;68.39;100420.66;5061354;28;20098;-61
2022/09/15 10:47:41;;;;;;;10.65;2.53;;;;;;;17.61;65.86;100429.31;5067275;28;20466;-61
2022/09/15 10:50:30;;;;;;;10.27;2.63;;;;;;;17.52;66.32;100427.88;5094168;28;20050;-61
2022/09/15 10:53:28;;;;;;;18.55;3.67;;;;;;;17.20;68.67;100427.66;5088171;28;20732;-61
2022/09/15 10:56:24;;;;;;;10.77;3.20;;;;;;;17.07;71.14;100431.13;5100127;28;20392;-61
2022/09/15 10:59:31;;;;;;;15.02;3.85;;;;;;;17.02;71.40;100420.19;5100578;28;20047;-60
2022/09/15 11:02:22;;;;;;;8.18;2.63;;;;;;;17.25;67.56;100419.00;5089945;28;20048;-62
2022/09/15 11:08:34;;;;;;;11.80;2.90;;;;;;;17.49;65.45;100420.22;5119030;27;20386;-60
2022/09/15 11:11:27;;;;;;;13.98;2.60;;;;;;;17.81;64.67;100423.09;5128875;27;20043;-61
2022/09/15 11:14:34;;;;;;;15.25;2.67;;;;;;;18.16;65.39;100429.00;5117385;28;20492;-61
2022/09/15 11:17:41;;;;;;;10.07;2.72;;;;;;;18.79;62.85;100438.22;5087521;28;20040;-61
2022/09/15 11:23:19;;;;;;;14.35;2.63;;;;;;;18.83;61.11;100441.31;5065272;28;20353;-60
2022/09/15 11:25:52;;;;;;;16.45;3.17;;;;;;;18.36;62.01;100439.66;5068325;28;20051;-61
2022/09/15 11:28:47;;;;;;;10.70;3.00;;;;;;;18.00;63.88;100429.47;5066894;28;20044;-60
2022/09/15 11:31:20;;;;;;;16.23;3.10;;;;;;;17.76;64.96;100434.44;5079728;28;20116;-61
2022/09/15 11:33:55;;;;;;;13.90;2.72;;;;;;;17.73;64.72;100432.16;5071716;28;20499;-61
2022/09/15 11:36:28;;;;;;;12.63;2.80;;;;;;;17.67;64.52;100441.06;5039438;28;20037;-61
2022/09/15 11:39:03;;;;;;;14.20;2.88;;;;;;;17.69;66.32;100440.84;5060219;28;20064;-61
2022/09/15 11:41:47;;;;;;;12.52;2.83;;;;;;;17.64;64.07;100446.81;5059047;28;20553;-60
2022/09/15 11:44:21;;;;;;;19.27;3.00;;;;;;;17.61;65.74;100445.41;5046726;28;20040;-55
2022/09/15 11:49:38;;;;;;;11.48;2.50;;;;;;;17.82;64.98;100441.63;5047105;28;21022;-47
2022/09/15 11:52:17;;;;;;;9.73;2.60;;;;;;;17.91;63.33;100444.16;5048481;28;20701;-50
2022/09/15 11:54:55;;;;;;;12.07;2.75;;;;;;;17.89;62.24;100446.22;5032715;28;20444;-49
2022/09/15 11:57:27;;;;;;;10.40;2.60;;;;;;;17.85;62.37;100443.13;5026059;28;20045;-50
2022/09/15 12:00:04;;;;;;;13.65;2.55;;;;;;;17.71;62.38;100434.22;5031132;28;20037;-47